Como, South Dakota
Current Conditions -  °F | °C
As of 9:36 AM on Wednesday 26 Nov 2014 (Local Time) from KHON Reporting Station
Light Snow Light Snow  
Wind Chill: -9°   Ceiling: 1400
Heat Index: 10°   Visibility: 3mi
Dew Point:   Wind: 20mph
Humidity: 80%   Direction: 350°N
Pressure: 30.3"   Gusts: NA
Location:  44.4695°N, 98.9943°W
Report Text: KHON 261536Z AUTO 35017KT 3SM -SN OVC014 M12/M15 A3030 RMK AO2 PK WND 34026/1519 P0000 T11221150
Loading
Personal Weather Stations






























Interactive Weather Map New forecast layout! Learn more

10-Day Weather Forecast

Advertisements
Track Severe Weather on mobile